createdAt,value
2022-09-26T00:01:44.197Z,2.30
2022-09-26T00:04:22.882Z,2.30
2022-09-26T00:06:53.680Z,2.08
2022-09-26T00:09:23.141Z,2.00
2022-09-26T00:11:52.105Z,2.17
2022-09-26T00:14:26.680Z,2.40
2022-09-26T00:16:55.564Z,2.10
2022-09-26T00:19:25.380Z,2.30
2022-09-26T00:21:53.839Z,1.90
2022-09-26T00:24:22.189Z,1.77
2022-09-26T00:26:50.504Z,1.95
2022-09-26T00:29:18.940Z,2.10
2022-09-26T00:31:50.030Z,2.00
2022-09-26T00:34:21.364Z,2.35
2022-09-26T00:36:49.875Z,1.95
2022-09-26T00:39:18.345Z,1.90
2022-09-26T00:41:47.009Z,2.00
2022-09-26T00:44:57.709Z,2.40
2022-09-26T00:47:30.680Z,2.03
2022-09-26T00:50:20.086Z,1.95
2022-09-26T00:52:54.940Z,1.73
2022-09-26T00:55:26.978Z,1.85
2022-09-26T00:58:01.339Z,2.13
2022-09-26T01:02:58.642Z,2.00
2022-09-26T01:05:27.627Z,1.85
2022-09-26T01:07:58.077Z,1.65
2022-09-26T01:10:27.950Z,1.92
2022-09-26T01:12:58.350Z,2.17
2022-09-26T01:15:26.962Z,1.50
2022-09-26T01:17:55.329Z,2.03
2022-09-26T01:20:29.232Z,2.20
2022-09-26T01:23:34.039Z,2.20
2022-09-26T01:26:54.642Z,2.08
2022-09-26T01:29:56.560Z,1.75
2022-09-26T01:32:49.688Z,2.03
2022-09-26T01:35:36.205Z,2.13
2022-09-26T01:38:29.780Z,1.95
2022-09-26T01:41:35.118Z,2.08
2022-09-26T01:47:26.351Z,1.58
2022-09-26T01:50:22.985Z,1.67
2022-09-26T01:53:10.200Z,1.42
2022-09-26T01:55:42.490Z,1.88
2022-09-26T01:58:24.282Z,1.83
2022-09-26T02:00:53.784Z,1.77
2022-09-26T02:03:28.381Z,1.70
2022-09-26T02:06:27.256Z,1.90
2022-09-26T02:09:02.600Z,1.80
2022-09-26T02:11:31.120Z,1.42
2022-09-26T02:14:07.631Z,1.50
2022-09-26T02:16:50.912Z,1.98
2022-09-26T02:19:25.182Z,2.17
2022-09-26T02:21:54.160Z,1.58
2022-09-26T02:24:24.560Z,2.15
2022-09-26T02:26:54.609Z,1.80
2022-09-26T02:29:23.228Z,1.75
2022-09-26T02:32:06.885Z,1.80
2022-09-26T02:34:35.400Z,1.85
2022-09-26T02:37:03.961Z,2.00
2022-09-26T02:39:32.584Z,1.90
2022-09-26T02:42:17.391Z,2.13
2022-09-26T02:45:26.706Z,2.00
2022-09-26T02:48:13.875Z,2.20
2022-09-26T02:50:50.837Z,1.60
2022-09-26T02:53:43.470Z,1.80
2022-09-26T02:56:37.082Z,1.63
2022-09-26T02:59:12.142Z,1.77
2022-09-26T03:01:56.129Z,1.67
2022-09-26T03:04:24.474Z,2.20
2022-09-26T03:06:59.106Z,1.70
2022-09-26T03:09:30.349Z,1.63
2022-09-26T03:12:03.610Z,1.83
2022-09-26T03:14:35.476Z,1.90
2022-09-26T03:17:05.386Z,2.10
2022-09-26T03:20:05.410Z,1.95
2022-09-26T03:22:34.986Z,2.00
2022-09-26T03:25:04.757Z,1.90
2022-09-26T03:27:34.180Z,1.88
2022-09-26T03:30:02.624Z,2.00
2022-09-26T03:32:30.891Z,2.25
2022-09-26T03:34:59.308Z,1.95
2022-09-26T03:37:27.785Z,2.08
2022-09-26T03:39:56.105Z,2.00
2022-09-26T03:42:25.723Z,1.83
2022-09-26T03:44:54.166Z,1.80
2022-09-26T03:47:22.507Z,2.13
2022-09-26T03:49:50.826Z,2.20
2022-09-26T03:52:19.157Z,2.05
2022-09-26T03:54:47.626Z,2.80
2022-09-26T03:57:17.553Z,2.10
2022-09-26T03:59:46.003Z,1.98
2022-09-26T04:02:15.206Z,2.38
2022-09-26T04:04:43.780Z,2.33
2022-09-26T04:07:12.270Z,2.28
2022-09-26T04:09:40.720Z,2.00
2022-09-26T04:12:08.997Z,2.10
2022-09-26T04:14:37.383Z,2.22
2022-09-26T04:17:05.710Z,1.90
2022-09-26T04:19:34.595Z,2.25
2022-09-26T04:22:02.964Z,2.10
2022-09-26T04:24:31.782Z,2.55
2022-09-26T04:27:00.550Z,2.22
2022-09-26T04:29:30.035Z,2.20
2022-09-26T04:31:58.408Z,2.42
2022-09-26T04:34:27.608Z,2.17
2022-09-26T04:36:56.400Z,1.77
2022-09-26T04:39:24.691Z,2.28
2022-09-26T04:41:54.281Z,2.05
2022-09-26T04:44:22.800Z,2.25
2022-09-26T04:46:51.305Z,2.50
2022-09-26T04:49:19.625Z,2.10
2022-09-26T04:51:48.878Z,2.30
2022-09-26T04:54:17.275Z,2.10
2022-09-26T04:56:45.861Z,2.90
2022-09-26T04:59:14.337Z,2.28
2022-09-26T05:01:42.683Z,2.20
2022-09-26T05:04:11.966Z,2.35
2022-09-26T05:06:41.002Z,2.13
2022-09-26T05:09:09.379Z,1.92
2022-09-26T05:11:37.796Z,2.40
2022-09-26T05:14:06.160Z,2.28
2022-09-26T05:16:34.875Z,2.88
2022-09-26T05:19:03.350Z,1.88
2022-09-26T05:21:31.725Z,2.20
2022-09-26T05:24:18.590Z,2.25
2022-09-26T05:26:53.990Z,2.42
2022-09-26T05:29:22.716Z,2.17
2022-09-26T05:31:52.451Z,2.25
2022-09-26T05:34:20.899Z,2.50
2022-09-26T05:36:49.273Z,2.10
2022-09-26T05:39:38.997Z,2.67
2022-09-26T05:42:10.836Z,2.72
2022-09-26T05:44:40.641Z,2.40
2022-09-26T05:47:09.926Z,2.65
2022-09-26T05:49:38.369Z,2.20
2022-09-26T05:52:06.740Z,2.45
2022-09-26T05:54:35.043Z,2.60
2022-09-26T05:57:03.459Z,1.98
2022-09-26T05:59:32.105Z,2.38
2022-09-26T06:02:00.464Z,2.53
2022-09-26T06:04:30.350Z,2.65
2022-09-26T06:06:59.147Z,2.42
2022-09-26T06:09:27.787Z,2.50
2022-09-26T06:11:56.110Z,2.45
2022-09-26T06:14:27.161Z,2.38
2022-09-26T06:16:55.525Z,2.35
2022-09-26T06:19:24.031Z,2.25
2022-09-26T06:21:52.517Z,2.40
2022-09-26T06:24:21.547Z,2.30
2022-09-26T06:26:49.864Z,2.15
2022-09-26T06:29:18.111Z,2.30
2022-09-26T06:31:46.580Z,2.55
2022-09-26T06:34:16.264Z,2.17
2022-09-26T06:36:45.226Z,2.20
2022-09-26T06:39:13.861Z,2.50
2022-09-26T06:41:42.181Z,2.72
2022-09-26T06:44:10.661Z,2.50
2022-09-26T06:46:39.034Z,2.58
2022-09-26T06:49:07.793Z,2.40
2022-09-26T06:51:38.992Z,2.47
2022-09-26T06:54:07.479Z,2.25
2022-09-26T06:56:35.790Z,2.28
2022-09-26T06:59:04.744Z,2.22
2022-09-26T07:01:33.798Z,2.22
2022-09-26T07:04:02.486Z,2.35
2022-09-26T07:06:30.957Z,2.30
2022-09-26T07:09:04.848Z,2.33
2022-09-26T07:11:56.279Z,2.47
2022-09-26T07:14:24.755Z,2.53
2022-09-26T07:16:55.420Z,2.25
2022-09-26T07:19:23.795Z,2.60
2022-09-26T07:21:52.239Z,2.35
2022-09-26T07:24:20.880Z,2.42
2022-09-26T07:26:49.134Z,2.47
2022-09-26T07:29:17.527Z,2.53
2022-09-26T07:31:46.577Z,2.15
2022-09-26T07:34:18.321Z,2.85
2022-09-26T07:36:48.405Z,2.53
2022-09-26T07:39:16.997Z,2.60
2022-09-26T07:41:47.612Z,2.45
2022-09-26T07:47:23.820Z,2.30
2022-09-26T07:50:10.512Z,2.78
2022-09-26T07:52:39.126Z,2.00
2022-09-26T07:55:10.349Z,2.40
2022-09-26T07:57:38.806Z,2.50
2022-09-26T08:00:14.170Z,2.67
2022-09-26T08:02:45.420Z,2.58
2022-09-26T08:05:20.892Z,2.92
2022-09-26T08:07:50.330Z,2.47
2022-09-26T08:10:22.300Z,3.47
2022-09-26T08:12:51.941Z,2.88
2022-09-26T08:15:20.565Z,2.83
2022-09-26T08:17:48.893Z,2.85
2022-09-26T08:20:17.365Z,2.65
2022-09-26T08:22:45.685Z,2.80
2022-09-26T08:25:14.191Z,2.65
2022-09-26T08:27:44.737Z,3.97
2022-09-26T08:30:13.841Z,2.72
2022-09-26T08:32:43.071Z,2.95
2022-09-26T08:35:15.940Z,3.10
2022-09-26T08:37:44.375Z,3.42
2022-09-26T08:40:13.902Z,3.05
2022-09-26T08:43:05.364Z,2.92
2022-09-26T08:46:12.453Z,3.28
2022-09-26T08:49:22.494Z,4.05
2022-09-26T08:51:53.723Z,3.20
2022-09-26T08:54:39.138Z,3.13
2022-09-26T08:57:22.166Z,2.83
2022-09-26T08:59:50.960Z,2.53
2022-09-26T09:02:44.188Z,2.90
2022-09-26T09:05:27.090Z,2.67
2022-09-26T09:07:58.978Z,2.53
2022-09-26T09:10:51.790Z,2.70
2022-09-26T09:13:39.925Z,2.53
2022-09-26T09:16:17.222Z,2.53
2022-09-26T09:18:54.791Z,3.00
2022-09-26T09:21:43.920Z,2.58
2022-09-26T09:24:19.125Z,2.97
2022-09-26T09:30:22.480Z,3.00
2022-09-26T09:32:54.804Z,2.80
2022-09-26T09:35:40.195Z,2.72
2022-09-26T09:38:11.603Z,2.50
2022-09-26T09:41:02.634Z,2.60
2022-09-26T09:43:38.647Z,2.78
2022-09-26T09:46:23.981Z,3.38
2022-09-26T09:48:59.204Z,3.05
2022-09-26T09:51:40.400Z,2.55
2022-09-26T09:54:50.002Z,2.85
2022-09-26T09:57:42.643Z,3.08
2022-09-26T10:00:21.378Z,2.40
2022-09-26T10:03:03.980Z,2.42
2022-09-26T10:05:47.134Z,2.80
2022-09-26T10:08:20.714Z,2.40
2022-09-26T10:11:09.688Z,3.27
2022-09-26T10:13:40.829Z,2.70
2022-09-26T10:16:12.146Z,3.05
2022-09-26T10:19:07.257Z,3.30
2022-09-26T10:21:41.850Z,3.60
2022-09-26T10:26:53.364Z,2.58
2022-09-26T10:29:31.422Z,2.72
2022-09-26T10:32:01.532Z,2.83
2022-09-26T10:34:32.414Z,2.75
2022-09-26T10:37:38.007Z,3.25
2022-09-26T10:43:35.791Z,3.40
2022-09-26T10:46:17.447Z,3.25
2022-09-26T10:48:55.750Z,2.90
2022-09-26T10:51:30.809Z,3.40
2022-09-26T10:54:27.770Z,2.78
2022-09-26T10:57:00.252Z,3.13
2022-09-26T10:59:32.417Z,3.05
2022-09-26T11:02:04.557Z,2.70
2022-09-26T11:04:54.970Z,3.40
2022-09-26T11:07:28.780Z,3.17
2022-09-26T11:10:03.240Z,3.58
2022-09-26T11:15:06.494Z,3.38
2022-09-26T11:17:49.685Z,3.45
2022-09-26T11:20:42.344Z,3.90
2022-09-26T11:23:32.725Z,2.75
2022-09-26T11:26:33.050Z,3.47
2022-09-26T11:29:04.890Z,3.25
2022-09-26T11:31:42.232Z,2.92
2022-09-26T11:34:18.009Z,3.30
2022-09-26T11:37:01.698Z,3.50
2022-09-26T11:39:41.674Z,3.30
2022-09-26T11:42:45.010Z,3.40
2022-09-26T11:45:54.356Z,3.30
2022-09-26T11:48:43.595Z,3.10
2022-09-26T11:51:22.480Z,3.55
2022-09-26T11:54:24.424Z,3.50
2022-09-26T11:57:09.525Z,3.35
2022-09-26T12:00:09.954Z,3.40
2022-09-26T12:02:58.518Z,3.25
2022-09-26T12:05:45.214Z,4.30
2022-09-26T12:08:25.526Z,3.75
2022-09-26T12:11:18.325Z,3.85
2022-09-26T12:14:10.325Z,3.85
2022-09-26T12:17:06.015Z,3.65
2022-09-26T12:19:46.009Z,3.53
2022-09-26T12:22:29.384Z,3.38
2022-09-26T12:25:38.798Z,3.85
2022-09-26T12:28:32.727Z,3.88
2022-09-26T12:31:08.126Z,3.42
2022-09-26T12:33:57.685Z,4.32
2022-09-26T12:37:07.452Z,3.63
2022-09-26T12:39:50.655Z,3.53
2022-09-26T12:42:39.115Z,3.97
2022-09-26T12:45:34.488Z,3.65
2022-09-26T12:48:35.282Z,3.58
2022-09-26T12:51:24.115Z,3.40
2022-09-26T12:54:13.844Z,3.65
2022-09-26T12:56:52.688Z,3.50
2022-09-26T12:59:24.350Z,3.60
2022-09-26T13:02:14.166Z,3.55
2022-09-26T13:05:32.085Z,3.67
2022-09-26T13:08:03.621Z,3.53
2022-09-26T13:10:38.011Z,3.72
2022-09-26T13:13:34.321Z,4.07
2022-09-26T13:16:32.731Z,3.40
2022-09-26T13:19:27.137Z,3.70
2022-09-26T13:22:02.790Z,3.88
2022-09-26T13:24:51.370Z,3.95
2022-09-26T13:27:33.047Z,3.55
2022-09-26T13:30:14.150Z,3.75
2022-09-26T13:32:51.550Z,4.07
2022-09-26T13:35:24.350Z,3.58
2022-09-26T13:38:15.296Z,3.42
2022-09-26T13:40:58.485Z,3.30
2022-09-26T13:43:48.560Z,3.78
2022-09-26T13:46:47.285Z,3.55
2022-09-26T13:49:34.966Z,3.85
2022-09-26T13:52:35.128Z,2.97
2022-09-26T13:55:16.885Z,3.47
2022-09-26T13:58:04.808Z,3.35
2022-09-26T14:00:41.860Z,3.53
2022-09-26T14:03:17.483Z,3.10
2022-09-26T14:05:46.958Z,3.05
2022-09-26T14:08:45.581Z,3.38
2022-09-26T14:11:15.933Z,3.10
2022-09-26T14:13:44.246Z,3.10
2022-09-26T14:16:35.928Z,3.05
2022-09-26T14:19:07.431Z,3.50
2022-09-26T14:21:41.361Z,3.53
2022-09-26T14:24:31.605Z,3.42
2022-09-26T14:27:13.525Z,3.60
2022-09-26T14:29:50.631Z,3.33
2022-09-26T14:32:31.414Z,3.70
2022-09-26T14:35:03.873Z,3.88
2022-09-26T14:37:42.753Z,3.33
2022-09-26T14:40:11.177Z,3.28
2022-09-26T14:42:53.152Z,3.20
2022-09-26T14:45:42.330Z,3.80
2022-09-26T14:48:21.154Z,3.03
2022-09-26T14:51:04.440Z,4.00
2022-09-26T14:53:35.467Z,3.42
2022-09-26T14:56:12.260Z,3.20
2022-09-26T14:58:40.691Z,3.28
2022-09-26T15:01:29.596Z,3.20
2022-09-26T15:04:20.411Z,2.95
2022-09-26T15:06:53.843Z,3.45
2022-09-26T15:09:33.325Z,4.15
2022-09-26T15:12:09.531Z,3.17
2022-09-26T15:15:04.054Z,3.10
2022-09-26T15:17:36.410Z,3.78
2022-09-26T15:20:08.716Z,3.50
2022-09-26T15:22:37.051Z,2.90
2022-09-26T15:25:12.994Z,3.67
2022-09-26T15:27:46.276Z,3.22
2022-09-26T15:30:19.280Z,3.35
2022-09-26T15:32:50.013Z,3.42
2022-09-26T15:35:18.991Z,3.63
2022-09-26T15:37:47.771Z,3.15
2022-09-26T15:40:31.109Z,3.63
2022-09-26T15:43:21.527Z,3.70
2022-09-26T15:45:50.976Z,3.83
2022-09-26T15:48:22.325Z,4.40
2022-09-26T15:51:00.891Z,3.63
2022-09-26T15:53:41.501Z,3.03
2022-09-26T15:56:09.776Z,4.30
2022-09-26T15:58:41.002Z,4.13
2022-09-26T16:01:10.131Z,4.47
2022-09-26T16:03:46.989Z,4.80
2022-09-26T16:06:24.049Z,4.30
2022-09-26T16:08:58.863Z,4.05
2022-09-26T16:11:27.780Z,3.97
2022-09-26T16:13:57.581Z,4.28
2022-09-26T16:16:34.732Z,4.38
2022-09-26T16:19:05.055Z,4.30
2022-09-26T16:21:37.381Z,4.07
2022-09-26T16:24:35.035Z,3.90
2022-09-26T16:27:03.298Z,3.65
2022-09-26T16:29:37.728Z,3.90
2022-09-26T16:34:34.275Z,3.80
2022-09-26T16:37:02.600Z,3.67
2022-09-26T16:39:33.325Z,3.35
2022-09-26T16:42:14.811Z,3.42
2022-09-26T16:44:51.936Z,3.50
2022-09-26T16:47:43.567Z,3.97
2022-09-26T16:50:28.640Z,3.85
2022-09-26T16:52:58.583Z,3.85
2022-09-26T16:55:28.133Z,3.40
2022-09-26T16:58:00.405Z,3.88
2022-09-26T17:00:52.765Z,3.65
2022-09-26T17:03:31.761Z,3.92
2022-09-26T17:06:01.863Z,3.45
2022-09-26T17:08:30.590Z,3.28
2022-09-26T17:11:04.991Z,3.55
2022-09-26T17:16:04.438Z,3.70
2022-09-26T17:18:34.085Z,4.18
2022-09-26T17:21:03.080Z,3.70
2022-09-26T17:23:40.434Z,4.00
2022-09-26T17:26:15.815Z,3.70
2022-09-26T17:28:44.386Z,3.90
2022-09-26T17:31:20.582Z,4.18
2022-09-26T17:33:52.475Z,4.10
2022-09-26T17:36:30.560Z,4.38
2022-09-26T17:39:00.984Z,4.72
2022-09-26T17:41:30.640Z,4.43
2022-09-26T17:44:02.632Z,4.50
2022-09-26T17:46:31.224Z,5.03
2022-09-26T17:49:00.236Z,4.88
2022-09-26T17:51:28.570Z,4.28
2022-09-26T17:53:58.185Z,4.85
2022-09-26T17:56:27.270Z,4.25
2022-09-26T17:58:56.591Z,4.97
2022-09-26T18:01:27.852Z,4.13
2022-09-26T18:04:00.994Z,4.40
2022-09-26T18:06:33.661Z,4.65
2022-09-26T18:09:08.230Z,3.67
2022-09-26T18:11:38.263Z,5.45
2022-09-26T18:14:07.710Z,4.88
2022-09-26T18:16:36.197Z,4.13
2022-09-26T18:19:07.739Z,4.57
2022-09-26T18:21:36.974Z,4.63
2022-09-26T18:24:07.585Z,4.18
2022-09-26T18:26:48.212Z,4.88
2022-09-26T18:29:30.913Z,5.28
2022-09-26T18:32:01.930Z,4.63
2022-09-26T18:34:30.210Z,5.13
2022-09-26T18:37:00.978Z,4.72
2022-09-26T18:39:31.360Z,4.50
2022-09-26T18:42:11.241Z,4.55
2022-09-26T18:44:39.660Z,4.50
2022-09-26T18:47:15.412Z,4.15
2022-09-26T18:49:47.289Z,4.03
2022-09-26T18:52:17.421Z,4.13
2022-09-26T18:54:46.785Z,4.38
2022-09-26T18:57:34.271Z,4.00
2022-09-26T19:00:04.340Z,3.90
2022-09-26T19:02:39.235Z,4.13
2022-09-26T19:05:09.318Z,5.05
2022-09-26T19:07:37.931Z,3.47
2022-09-26T19:10:06.600Z,4.43
2022-09-26T19:12:39.880Z,3.78
2022-09-26T19:15:17.621Z,3.67
2022-09-26T19:17:45.900Z,3.45
2022-09-26T19:20:14.261Z,3.63
2022-09-26T19:22:42.638Z,3.65
2022-09-26T19:25:11.864Z,4.03
2022-09-26T19:27:50.442Z,3.67
2022-09-26T19:30:22.135Z,3.47
2022-09-26T19:32:53.017Z,4.28
2022-09-26T19:35:32.149Z,3.28
2022-09-26T19:38:01.631Z,2.92
2022-09-26T19:40:30.310Z,3.58
2022-09-26T19:42:59.005Z,3.20
2022-09-26T19:45:32.201Z,3.30
2022-09-26T19:48:00.931Z,4.00
2022-09-26T19:50:30.925Z,3.40
2022-09-26T19:52:59.611Z,2.92
2022-09-26T19:55:31.085Z,3.83
2022-09-26T19:58:07.838Z,2.92
2022-09-26T20:00:42.130Z,3.45
2022-09-26T20:05:48.753Z,2.38
2022-09-26T20:08:28.246Z,2.95
2022-09-26T20:10:57.530Z,3.35
2022-09-26T20:13:27.870Z,3.22
2022-09-26T20:15:57.672Z,3.47
2022-09-26T20:18:26.125Z,3.10
2022-09-26T20:20:56.790Z,3.53
2022-09-26T20:23:27.967Z,3.10
2022-09-26T20:25:57.215Z,3.75
2022-09-26T20:28:25.455Z,3.30
2022-09-26T20:30:54.962Z,3.88
2022-09-26T20:33:24.788Z,4.00
2022-09-26T20:36:02.389Z,3.70
2022-09-26T20:38:46.325Z,3.25
2022-09-26T20:41:27.530Z,4.55
2022-09-26T20:44:02.610Z,3.65
2022-09-26T20:46:37.618Z,3.58
2022-09-26T20:49:13.953Z,4.18
2022-09-26T20:51:42.400Z,4.28
2022-09-26T20:54:39.680Z,4.38
2022-09-26T20:57:07.912Z,3.65
2022-09-26T20:59:37.495Z,4.35
2022-09-26T21:02:25.494Z,4.20
2022-09-26T21:04:54.301Z,3.65
2022-09-26T21:07:23.425Z,3.45
2022-09-26T21:09:51.888Z,4.18
2022-09-26T21:12:20.585Z,3.92
2022-09-26T21:14:48.897Z,4.28
2022-09-26T21:17:25.625Z,4.07
2022-09-26T21:19:55.290Z,4.57
2022-09-26T21:22:28.639Z,4.25
2022-09-26T21:24:57.023Z,3.90
2022-09-26T21:27:25.326Z,3.70
2022-09-26T21:29:53.505Z,4.30
2022-09-26T21:32:24.029Z,4.38
2022-09-26T21:35:05.048Z,3.65
2022-09-26T21:37:33.368Z,3.67
2022-09-26T21:40:02.425Z,3.05
2022-09-26T21:42:32.071Z,4.13
2022-09-26T21:45:04.089Z,3.53
2022-09-26T21:47:33.050Z,3.33
2022-09-26T21:50:01.473Z,2.75
2022-09-26T21:52:43.447Z,2.80
2022-09-26T21:55:17.180Z,3.28
2022-09-26T21:57:49.534Z,3.10
2022-09-26T22:00:17.801Z,2.97
2022-09-26T22:02:46.260Z,2.40
2022-09-26T22:05:14.745Z,3.00
2022-09-26T22:07:42.981Z,2.92
2022-09-26T22:10:11.396Z,2.45
2022-09-26T22:12:39.598Z,2.50
2022-09-26T22:15:08.850Z,2.20
2022-09-26T22:17:37.170Z,2.75
2022-09-26T22:20:05.834Z,2.88
2022-09-26T22:22:34.110Z,2.30
2022-09-26T22:25:05.057Z,2.70
2022-09-26T22:27:34.485Z,2.70
2022-09-26T22:30:03.215Z,2.20
2022-09-26T22:32:31.455Z,2.35
2022-09-26T22:34:59.644Z,2.47
2022-09-26T22:37:27.922Z,2.40
2022-09-26T22:39:56.205Z,2.50
2022-09-26T22:42:24.464Z,2.90
2022-09-26T22:44:52.668Z,2.70
2022-09-26T22:47:20.845Z,2.42
2022-09-26T22:49:49.144Z,2.15
2022-09-26T22:52:17.421Z,2.83
2022-09-26T22:54:45.602Z,2.40
2022-09-26T22:57:13.845Z,2.75
2022-09-26T22:59:42.093Z,2.38
2022-09-26T23:02:10.549Z,2.22
2022-09-26T23:04:50.969Z,2.15
2022-09-26T23:07:20.931Z,2.72
2022-09-26T23:09:49.206Z,2.63
2022-09-26T23:12:17.625Z,3.20
2022-09-26T23:14:46.317Z,3.10
2022-09-26T23:17:14.816Z,2.90
2022-09-26T23:19:43.131Z,2.50
2022-09-26T23:22:11.370Z,2.92
2022-09-26T23:24:39.690Z,2.63
2022-09-26T23:27:08.051Z,2.50
2022-09-26T23:29:36.631Z,1.70
2022-09-26T23:32:05.051Z,2.53
2022-09-26T23:34:33.351Z,2.58
2022-09-26T23:37:01.636Z,2.30
2022-09-26T23:39:29.890Z,2.42
2022-09-26T23:41:59.765Z,2.60
2022-09-26T23:44:28.495Z,2.40
2022-09-26T23:46:56.816Z,2.42
2022-09-26T23:49:25.158Z,2.40
2022-09-26T23:51:53.865Z,2.40
2022-09-26T23:54:22.115Z,2.30
2022-09-26T23:56:50.355Z,2.58
2022-09-26T23:59:18.591Z,2.35
